LJU weather

Ljubljana Jože Pučnik Airport
Ljubljana, Ljubljana, Slovenia

Public forecast

Using degrees Celsius for public forecast. Weather courtesy of forecast.io.

Current aviation weather report (METAR) for Ljubljana Jože Pučnik Airport

Retrieved 2019/11/13 16:30 UTC (0 seconds ago):

LJLJ 131630Z 29010KT 8000 RA SCT016 OVC026 05/04 Q1002 NOSIG

Aviation forecast (TAF) for Ljubljana Jože Pučnik Airport

Retrieved 2019/11/13 15:04 UTC (1 hour ago):

TAF LJLJ 131400Z 1315/1415 30005KT 7000 -RA FEW004 SCT020 OVC035 TEMPO 1315/1316 5000 RA BR SCT005 OVC017 BECMG 1316/1319 30002KT NSW TEMPO 1319/1412 SCT003 BKN020 PROB40 TEMPO 1403/1406 3500 BR SCT001 OVC012